createdAt,value
2023-04-02T00:01:43.335Z,99317.80
2023-04-02T00:04:29.482Z,99323.32
2023-04-02T00:07:33.520Z,99326.23
2023-04-02T00:10:33.249Z,99331.64
2023-04-02T00:20:08.825Z,99347.50
2023-04-02T00:25:42.358Z,99354.44
2023-04-02T00:28:27.360Z,99358.34
2023-04-02T00:31:12.689Z,99361.08
2023-04-02T00:36:53.469Z,99368.80
2023-04-02T00:45:58.644Z,99376.21
2023-04-02T00:58:01.362Z,99392.27
2023-04-02T01:00:51.391Z,99394.52
2023-04-02T01:03:37.899Z,99396.02
2023-04-02T01:12:58.248Z,99402.68
2023-04-02T01:15:53.213Z,99402.77
2023-04-02T01:18:50.515Z,99404.61
2023-04-02T01:21:45.563Z,99408.42
2023-04-02T01:24:33.629Z,99418.48
2023-04-02T01:27:36.436Z,99424.86
2023-04-02T01:37:07.844Z,99438.02
2023-04-02T01:40:17.756Z,99441.61
2023-04-02T01:43:15.346Z,99447.04
2023-04-02T01:46:22.829Z,99453.38
2023-04-02T01:49:15.234Z,99459.11
2023-04-02T01:52:00.458Z,99456.58
2023-04-02T01:54:47.140Z,99462.20
2023-04-02T01:57:32.308Z,99458.02
2023-04-02T02:00:18.573Z,99459.27
2023-04-02T02:06:18.062Z,99468.25
2023-04-02T02:09:06.859Z,99471.80
2023-04-02T02:11:52.178Z,99475.67
2023-04-02T02:14:37.368Z,99485.83
2023-04-02T02:17:33.813Z,99488.11
2023-04-02T02:20:19.213Z,99487.09
2023-04-02T02:23:05.319Z,99497.70
2023-04-02T02:25:50.862Z,99499.67
2023-04-02T02:28:40.719Z,99502.93
2023-04-02T02:31:32.484Z,99510.69
2023-04-02T02:34:24.273Z,99514.66
2023-04-02T02:37:17.595Z,99520.77
2023-04-02T02:40:09.737Z,99528.91
2023-04-02T02:43:00.671Z,99529.68
2023-04-02T02:45:48.202Z,99534.40
2023-04-02T02:48:39.084Z,99538.27
2023-04-02T02:51:38.955Z,99539.27
2023-04-02T02:54:26.739Z,99541.23
2023-04-02T02:57:22.630Z,99548.02
2023-04-02T03:00:11.141Z,99557.96
2023-04-02T03:05:58.090Z,99572.52
2023-04-02T03:09:03.518Z,99572.81
2023-04-02T03:12:08.478Z,99566.38
2023-04-02T03:15:08.053Z,99588.69
2023-04-02T03:18:17.771Z,99591.92
2023-04-02T03:21:03.741Z,99577.23
2023-04-02T03:23:56.329Z,99599.14
2023-04-02T03:26:54.754Z,99606.81
2023-04-02T03:29:45.777Z,99611.29
2023-04-02T03:32:37.265Z,99619.63
2023-04-02T03:35:35.305Z,99623.27
2023-04-02T03:38:31.936Z,99631.48
2023-04-02T03:41:23.568Z,99642.67
2023-04-02T03:44:40.180Z,99646.79
2023-04-02T03:47:34.925Z,99650.77
2023-04-02T03:50:47.072Z,99658.34
2023-04-02T03:53:33.174Z,99662.48
2023-04-02T03:56:26.160Z,99666.56
2023-04-02T03:59:43.432Z,99670.27
2023-04-02T04:02:43.350Z,99678.62
2023-04-02T04:05:31.457Z,99682.42
2023-04-02T04:08:21.602Z,99688.70
2023-04-02T04:11:10.483Z,99693.67
2023-04-02T04:14:18.763Z,99696.48
2023-04-02T04:17:23.951Z,99708.61
2023-04-02T04:20:27.457Z,99715.90
2023-04-02T04:23:29.996Z,99721.42
2023-04-02T04:26:35.585Z,99728.23
2023-04-02T04:29:45.929Z,99731.93
2023-04-02T04:32:38.456Z,99739.27
2023-04-02T04:35:26.646Z,99744.56
2023-04-02T04:38:32.285Z,99747.06
2023-04-02T04:44:13.247Z,99758.77
2023-04-02T04:47:17.124Z,99762.31
2023-04-02T04:50:16.656Z,99767.13
2023-04-02T04:53:07.874Z,99772.80
2023-04-02T04:55:58.269Z,99778.73
2023-04-02T04:58:55.614Z,99786.48
2023-04-02T05:02:02.656Z,99788.51
2023-04-02T05:04:51.021Z,99793.98
2023-04-02T05:07:47.336Z,99801.27
2023-04-02T05:10:54.541Z,99808.44
2023-04-02T05:13:51.209Z,99816.98
2023-04-02T05:23:29.709Z,99805.14
2023-04-02T05:26:20.996Z,99811.11
2023-04-02T05:29:14.776Z,99821.36
2023-04-02T05:32:09.387Z,99841.06
2023-04-02T05:34:57.136Z,99825.61
2023-04-02T05:37:44.633Z,99829.18
2023-04-02T05:40:36.450Z,99824.73
2023-04-02T05:43:25.485Z,99851.60
2023-04-02T05:46:20.851Z,99858.86
2023-04-02T05:49:13.345Z,99861.84
2023-04-02T05:52:01.611Z,99868.23
2023-04-02T05:55:12.814Z,99869.54
2023-04-02T06:01:20.914Z,99880.17
2023-04-02T06:04:13.360Z,99872.73
2023-04-02T06:07:10.065Z,99885.41
2023-04-02T06:10:08.878Z,99891.55
2023-04-02T06:13:05.309Z,99896.47
2023-04-02T06:15:50.791Z,99897.81
2023-04-02T06:18:36.434Z,99900.02
2023-04-02T06:21:21.892Z,99910.16
2023-04-02T06:24:13.440Z,99917.39
2023-04-02T06:27:05.299Z,99918.96
2023-04-02T06:29:52.645Z,99921.27
2023-04-02T06:32:38.213Z,99925.49
2023-04-02T06:35:23.216Z,99927.80
2023-04-02T06:38:25.071Z,99933.54
2023-04-02T06:41:18.130Z,99941.30
2023-04-02T06:44:14.601Z,99950.45
2023-04-02T06:47:06.940Z,99955.67
2023-04-02T06:50:03.854Z,99958.52
2023-04-02T06:52:57.375Z,99963.92
2023-04-02T06:56:03.459Z,99969.33
2023-04-02T06:58:49.011Z,99973.60
2023-04-02T07:02:00.423Z,99975.65
2023-04-02T07:08:00.892Z,99989.06
2023-04-02T07:14:02.711Z,99998.67
2023-04-02T07:16:51.564Z,100000.52
2023-04-02T07:19:36.845Z,100007.93
2023-04-02T07:22:25.116Z,100010.89
2023-04-02T07:25:10.740Z,100011.11
2023-04-02T07:27:56.449Z,100013.48
2023-04-02T07:30:42.510Z,100017.08
2023-04-02T07:33:29.771Z,100024.23
2023-04-02T07:36:18.540Z,100027.65
2023-04-02T07:39:04.544Z,100029.36
2023-04-02T07:44:30.002Z,100035.19
2023-04-02T07:47:16.225Z,100023.46
2023-04-02T07:50:01.529Z,100044.98
2023-04-02T07:52:46.980Z,100048.45
2023-04-02T07:56:06.617Z,100051.39
2023-04-02T07:58:52.033Z,100063.48
2023-04-02T08:04:32.962Z,100077.10
2023-04-02T08:07:22.596Z,100080.75
2023-04-02T08:15:58.259Z,100101.60
2023-04-02T08:24:56.156Z,100116.35
2023-04-02T08:30:49.319Z,100125.46
2023-04-02T08:33:35.188Z,100128.77
2023-04-02T08:36:28.125Z,100137.48
2023-04-02T08:39:14.107Z,100136.61
2023-04-02T08:42:06.677Z,100144.01
2023-04-02T08:45:27.104Z,100141.20
2023-04-02T08:48:15.008Z,100145.15
2023-04-02T08:51:01.700Z,100150.15
2023-04-02T08:53:47.208Z,100148.44
2023-04-02T08:56:39.941Z,100148.70
2023-04-02T08:59:38.294Z,100143.69
2023-04-02T09:02:41.117Z,100146.98
2023-04-02T09:05:31.307Z,100154.43
2023-04-02T09:11:27.050Z,100166.52
2023-04-02T09:14:19.340Z,100168.66
2023-04-02T09:17:19.586Z,100165.76
2023-04-02T09:20:16.783Z,100168.61
2023-04-02T09:23:01.864Z,100166.77
2023-04-02T09:26:03.666Z,100171.83
2023-04-02T09:29:00.784Z,100178.84
2023-04-02T09:31:54.998Z,100178.27
2023-04-02T09:34:40.139Z,100180.66
2023-04-02T09:37:25.525Z,100179.02
2023-04-02T09:40:25.513Z,100186.47
2023-04-02T09:43:12.683Z,100193.96
2023-04-02T09:45:59.441Z,100196.69
2023-04-02T09:48:52.520Z,100204.28
2023-04-02T09:51:37.697Z,100208.18
2023-04-02T09:54:23.076Z,100214.65
2023-04-02T09:57:23.135Z,100222.60
2023-04-02T10:00:32.503Z,100225.19
2023-04-02T10:03:25.509Z,100231.02
2023-04-02T10:06:13.589Z,100241.20
2023-04-02T10:09:19.522Z,100246.04
2023-04-02T10:12:11.847Z,100248.70
2023-04-02T10:15:00.051Z,100255.95
2023-04-02T10:17:51.116Z,100253.77
2023-04-02T10:20:50.434Z,100262.90
2023-04-02T10:23:36.562Z,100258.99
2023-04-02T10:26:40.039Z,100259.37
2023-04-02T10:29:48.785Z,100265.11
2023-04-02T10:32:48.535Z,100270.04
2023-04-02T10:35:47.294Z,100273.77
2023-04-02T10:38:46.447Z,100276.48
2023-04-02T10:41:42.053Z,100276.64
2023-04-02T10:44:59.465Z,100278.48
2023-04-02T10:48:04.025Z,100277.83
2023-04-02T10:50:56.693Z,100278.35
2023-04-02T10:53:57.223Z,100281.54
2023-04-02T10:56:51.207Z,100288.29
2023-04-02T10:59:47.581Z,100276.98
2023-04-02T11:02:35.842Z,100298.23
2023-04-02T11:05:43.478Z,100300.05
2023-04-02T11:08:47.166Z,100302.27
2023-04-02T11:14:31.353Z,100311.94
2023-04-02T11:17:20.225Z,100314.33
2023-04-02T11:20:43.323Z,100323.98
2023-04-02T11:23:39.144Z,100323.54
2023-04-02T11:30:02.351Z,100339.69
2023-04-02T11:32:50.143Z,100343.33
2023-04-02T11:35:39.186Z,100344.47
2023-04-02T11:38:25.828Z,100345.79
2023-04-02T11:41:11.318Z,100348.84
2023-04-02T11:44:10.729Z,100348.45
2023-04-02T12:10:31.550Z,100387.52
2023-04-02T12:13:21.291Z,100388.17
2023-04-02T12:21:59.020Z,100402.03
2023-04-02T12:27:47.992Z,100404.21
2023-04-02T12:40:25.475Z,100414.66
2023-04-02T12:46:07.464Z,100409.23
2023-04-02T12:49:05.383Z,100414.90
2023-04-02T12:51:51.402Z,100414.66
2023-04-02T12:54:45.087Z,100419.81
2023-04-02T12:57:33.748Z,100420.98
2023-04-02T13:00:22.248Z,100428.96
2023-04-02T13:05:58.293Z,100437.36
2023-04-02T13:08:44.730Z,100433.05
2023-04-02T13:11:38.321Z,100436.92
2023-04-02T13:17:05.825Z,100447.83
2023-04-02T13:26:08.972Z,100452.63
2023-04-02T13:29:19.454Z,100443.27
2023-04-02T13:32:24.722Z,100450.48
2023-04-02T13:35:10.055Z,100455.02
2023-04-02T13:37:55.049Z,100451.58
2023-04-02T13:40:40.718Z,100456.29
2023-04-02T13:43:25.934Z,100455.00
2023-04-02T13:46:21.923Z,100459.25
2023-04-02T13:49:09.212Z,100465.77
2023-04-02T13:51:58.208Z,100470.91
2023-04-02T13:54:50.782Z,100480.30
2023-04-02T13:57:35.900Z,100483.42
2023-04-02T14:00:21.217Z,100487.41
2023-04-02T14:03:15.891Z,100491.61
2023-04-02T14:06:12.314Z,100492.54
2023-04-02T14:09:07.676Z,100497.27
2023-04-02T14:11:59.165Z,100494.14
2023-04-02T14:14:45.242Z,100497.27
2023-04-02T14:17:56.717Z,100485.24
2023-04-02T14:20:56.012Z,100497.58
2023-04-02T14:23:53.870Z,100499.20
2023-04-02T14:33:01.386Z,100513.39
2023-04-02T14:36:24.541Z,100519.19
2023-04-02T14:39:38.309Z,100515.99
2023-04-02T14:49:27.066Z,100526.63
2023-04-02T14:52:19.359Z,100532.55
2023-04-02T14:55:09.398Z,100535.02
2023-04-02T14:57:55.068Z,100538.48
2023-04-02T15:00:51.599Z,100541.38
2023-04-02T15:03:45.748Z,100544.59
2023-04-02T15:09:57.989Z,100545.42
2023-04-02T15:12:46.432Z,100548.21
2023-04-02T15:15:52.167Z,100550.52
2023-04-02T15:18:38.881Z,100550.39
2023-04-02T15:21:55.923Z,100551.85
2023-04-02T15:24:59.126Z,100556.27
2023-04-02T15:28:12.146Z,100558.95
2023-04-02T15:31:03.564Z,100557.59
2023-04-02T15:34:01.231Z,100561.08
2023-04-02T15:36:58.355Z,100562.64
2023-04-02T15:40:15.892Z,100565.52
2023-04-02T15:43:28.478Z,100572.18
2023-04-02T15:46:37.663Z,100577.55
2023-04-02T15:49:31.654Z,100576.64
2023-04-02T15:52:53.815Z,100579.09
2023-04-02T15:55:45.483Z,100580.17
2023-04-02T15:58:42.671Z,100585.39
2023-04-02T16:01:33.877Z,100587.69
2023-04-02T16:04:19.778Z,100592.77
2023-04-02T16:07:46.216Z,100593.69
2023-04-02T16:13:34.822Z,100603.18
2023-04-02T16:16:31.977Z,100601.83
2023-04-02T16:19:46.772Z,100611.27
2023-04-02T16:25:21.855Z,100619.63
2023-04-02T16:31:11.068Z,100624.39
2023-04-02T16:34:07.177Z,100631.90
2023-04-02T16:37:17.657Z,100639.05
2023-04-02T16:40:31.312Z,100641.85
2023-04-02T16:46:40.902Z,100647.39
2023-04-02T16:52:49.838Z,100657.58
2023-04-02T16:58:56.412Z,100669.55
2023-04-02T17:02:18.288Z,100673.14
2023-04-02T17:05:19.378Z,100679.72
2023-04-02T17:08:13.599Z,100686.02
2023-04-02T17:11:14.292Z,100692.83
2023-04-02T17:14:21.080Z,100697.53
2023-04-02T17:17:11.507Z,100704.16
2023-04-02T17:20:00.001Z,100704.22
2023-04-02T17:22:46.980Z,100707.71
2023-04-02T17:25:36.533Z,100710.38
2023-04-02T17:28:28.479Z,100717.01
2023-04-02T17:31:21.913Z,100718.23
2023-04-02T17:34:17.788Z,100720.28
2023-04-02T17:37:19.022Z,100728.02
2023-04-02T17:40:08.085Z,100727.63
2023-04-02T17:46:37.220Z,100732.32
2023-04-02T17:49:49.846Z,100734.21
2023-04-02T17:55:48.824Z,100744.05
2023-04-02T18:01:57.023Z,100751.45
2023-04-02T18:08:04.778Z,100761.55
2023-04-02T18:11:26.626Z,100765.68
2023-04-02T18:14:37.211Z,100768.09
2023-04-02T18:20:27.716Z,100787.83
2023-04-02T18:23:38.325Z,100784.90
2023-04-02T18:26:27.155Z,100796.73
2023-04-02T18:29:18.316Z,100799.22
2023-04-02T18:32:22.227Z,100804.31
2023-04-02T18:35:20.044Z,100809.23
2023-04-02T18:38:23.779Z,100812.55
2023-04-02T18:41:36.714Z,100816.95
2023-04-02T18:44:49.876Z,100820.23
2023-04-02T18:47:51.698Z,100822.95
2023-04-02T18:50:40.287Z,100830.85
2023-04-02T18:53:36.019Z,100832.38
2023-04-02T19:02:49.047Z,100844.02
2023-04-02T19:05:35.350Z,100832.15
2023-04-02T19:08:37.536Z,100841.80
2023-04-02T19:11:30.725Z,100847.05
2023-04-02T19:17:27.983Z,100850.23
2023-04-02T19:20:16.335Z,100856.52
2023-04-02T19:23:27.036Z,100854.99
2023-04-02T19:26:17.069Z,100853.95
2023-04-02T19:32:57.025Z,100863.25
2023-04-02T19:38:41.410Z,100866.68
2023-04-02T19:41:47.427Z,100871.03
2023-04-02T19:44:32.750Z,100867.59
2023-04-02T19:47:19.689Z,100871.26
2023-04-02T19:53:26.104Z,100875.46
2023-04-02T19:56:12.439Z,100875.86
2023-04-02T19:59:02.321Z,100872.09
2023-04-02T20:01:51.689Z,100881.43
2023-04-02T20:11:00.079Z,100884.61
2023-04-02T20:13:45.256Z,100882.49
2023-04-02T20:19:23.937Z,100887.42
2023-04-02T20:25:58.052Z,100894.56
2023-04-02T20:28:43.448Z,100895.10
2023-04-02T20:41:15.613Z,100917.86
2023-04-02T21:00:14.656Z,100932.33
2023-04-02T21:03:00.220Z,100933.05
2023-04-02T21:08:53.740Z,100942.77
2023-04-02T21:14:37.334Z,100946.83
2023-04-02T21:17:24.020Z,100953.98
2023-04-02T21:23:02.538Z,100952.09
2023-04-02T21:26:01.529Z,100958.14
2023-04-02T21:28:48.181Z,100959.86
2023-04-02T21:38:16.851Z,100964.41
2023-04-02T21:41:10.253Z,100965.98
2023-04-02T21:43:57.092Z,100967.40
2023-04-02T21:46:43.508Z,100971.76
2023-04-02T21:49:29.133Z,100973.52
2023-04-02T21:52:15.267Z,100968.87
2023-04-02T21:58:03.503Z,100976.74
2023-04-02T22:04:07.214Z,100979.63
2023-04-02T22:06:52.788Z,100986.05
2023-04-02T22:09:38.115Z,100983.13
2023-04-02T22:12:22.955Z,100987.30
2023-04-02T22:28:00.941Z,100997.66
2023-04-02T22:30:48.468Z,101004.43
2023-04-02T22:33:36.519Z,101000.64
2023-04-02T22:36:24.390Z,101003.93
2023-04-02T22:39:11.902Z,101000.83
2023-04-02T22:41:56.961Z,101003.78
2023-04-02T22:44:43.570Z,101002.75
2023-04-02T22:47:29.080Z,101000.68
2023-04-02T22:50:18.492Z,101003.98
2023-04-02T22:53:04.055Z,101009.35
2023-04-02T22:55:51.647Z,101007.80
2023-04-02T22:58:38.226Z,101012.98
2023-04-02T23:01:28.078Z,101013.50
2023-04-02T23:04:13.751Z,101016.10
2023-04-02T23:06:59.074Z,101016.44
2023-04-02T23:09:43.922Z,101019.37
2023-04-02T23:12:29.027Z,101022.13
2023-04-02T23:15:15.034Z,101021.46
2023-04-02T23:18:00.385Z,101026.48
2023-04-02T23:27:14.160Z,101043.98
2023-04-02T23:29:59.075Z,101045.04
2023-04-02T23:35:43.783Z,101049.38
2023-04-02T23:38:29.122Z,101050.41
2023-04-02T23:47:01.230Z,101054.00
2023-04-02T23:49:47.233Z,101057.11
2023-04-02T23:52:32.418Z,101055.70
2023-04-02T23:55:17.367Z,101060.70
2023-04-02T23:58:03.476Z,101064.66
